Time;durP1;ratioP1;P1;durP2;ratioP2;P2;SDS_P1;SDS_P2;PMS_P1;PMS_P2;Temp;Humidity;BMP_temperature;BMP_pressure;BME280_temperature;BME280_humidity;BME280_pressure;Samples;Min_cycle;Max_cycle;Signal;HPM_P1;HPM_P2
2022/04/06 00:00:08;;;;;;;10.88;2.00;;;;;;;11.09;63.56;100612.97;5074610;28;20119;-53
2022/04/06 00:02:38;;;;;;;14.57;3.17;;;;;;;11.35;64.83;100617.41;5072225;28;20068;-57
2022/04/06 00:05:09;;;;;;;10.35;2.08;;;;;;;11.29;64.61;100599.41;5061589;28;20040;-56
2022/04/06 00:07:37;;;;;;;11.07;1.98;;;;;;;11.42;64.30;100600.41;5074239;28;20044;-57
2022/04/06 00:10:05;;;;;;;8.75;1.90;;;;;;;11.00;62.21;100599.16;5073844;28;20052;-56
2022/04/06 00:12:32;;;;;;;11.85;3.15;;;;;;;11.08;62.81;100605.84;5069746;28;20049;-58
2022/04/06 00:15:00;;;;;;;7.95;1.70;;;;;;;11.28;62.58;100599.72;5077989;28;20041;-57
2022/04/06 00:17:27;;;;;;;8.60;1.52;;;;;;;11.17;62.43;100601.16;5078571;28;20033;-56
2022/04/06 00:19:55;;;;;;;16.88;2.03;;;;;;;11.07;63.47;100598.72;5078189;28;20515;-55
2022/04/06 00:22:22;;;;;;;7.47;1.55;;;;;;;11.18;61.42;100594.50;5076874;28;20403;-57
2022/04/06 00:24:49;;;;;;;15.70;2.53;;;;;;;11.02;61.87;100591.38;5093989;28;20044;-58
2022/04/06 00:27:18;;;;;;;7.05;1.42;;;;;;;11.31;62.64;100583.34;5078506;28;20079;-56
2022/04/06 00:29:45;;;;;;;8.77;1.80;;;;;;;11.56;60.62;100586.47;5078355;28;20052;-54
2022/04/06 00:32:12;;;;;;;9.35;1.85;;;;;;;11.10;63.09;100585.09;5076165;28;20056;-55
2022/04/06 00:35:41;;;;;;;8.25;1.67;;;;;;;11.13;62.63;100581.69;5077518;28;20120;-55
2022/04/06 00:37:37;;;;;;;8.20;1.65;;;;;;;11.12;63.44;100571.78;5070200;28;20087;-53
2022/04/06 00:40:05;;;;;;;8.30;1.70;;;;;;;11.13;62.90;100578.13;5078229;28;20063;-56
2022/04/06 00:42:32;;;;;;;10.38;1.63;;;;;;;11.29;62.32;100560.81;5075216;28;20048;-57
2022/04/06 00:45:00;;;;;;;10.55;1.70;;;;;;;11.13;62.30;100562.41;5077524;28;20060;-56
2022/04/06 00:47:27;;;;;;;13.02;1.90;;;;;;;11.13;63.12;100559.63;5083481;28;20063;-56
2022/04/06 00:49:54;;;;;;;13.38;2.03;;;;;;;11.01;63.02;100561.38;5085359;28;20056;-60
2022/04/06 00:52:22;;;;;;;10.20;1.88;;;;;;;10.90;64.06;100560.88;5077933;28;20053;-64
2022/04/06 00:54:49;;;;;;;10.35;2.13;;;;;;;11.31;63.87;100553.00;5077914;28;20052;-63
2022/04/06 00:57:19;;;;;;;10.02;2.58;;;;;;;11.21;64.25;100550.56;5077943;28;20380;-63
2022/04/06 00:59:57;;;;;;;11.40;1.80;;;;;;;10.98;64.48;100551.81;5072653;28;20041;-61
2022/04/06 01:02:25;;;;;;;11.45;2.00;;;;;;;10.98;65.06;100559.28;5077228;28;20052;-61
2022/04/06 01:04:52;;;;;;;11.07;1.67;;;;;;;11.15;65.01;100540.84;5065188;28;20053;-62
2022/04/06 01:07:20;;;;;;;8.50;1.88;;;;;;;11.04;64.21;100547.78;5077628;28;20057;-61
2022/04/06 01:09:48;;;;;;;9.07;1.85;;;;;;;10.93;64.47;100551.94;5076638;28;20052;-62
2022/04/06 01:12:15;;;;;;;11.32;2.03;;;;;;;11.02;65.29;100541.78;5066441;28;20048;-61
2022/04/06 01:14:43;;;;;;;13.40;2.00;;;;;;;10.87;66.81;100547.72;5077417;28;20044;-62
2022/04/06 01:17:10;;;;;;;9.98;1.88;;;;;;;10.78;66.36;100537.81;5059584;28;20065;-62
2022/04/06 01:19:43;;;;;;;14.38;2.53;;;;;;;10.74;66.73;100529.38;5070486;28;20049;-61
2022/04/06 01:22:15;;;;;;;8.07;1.88;;;;;;;10.58;66.46;100530.94;5055833;28;20060;-57
2022/04/06 01:24:44;;;;;;;10.93;1.90;;;;;;;10.87;67.07;100527.63;5087184;28;20064;-55
2022/04/06 01:27:13;;;;;;;11.60;2.10;;;;;;;10.69;66.73;100526.75;5075920;28;20044;-55
2022/04/06 01:29:40;;;;;;;11.15;1.75;;;;;;;10.82;66.18;100527.78;5076008;28;20567;-55
2022/04/06 01:32:17;;;;;;;9.18;1.90;;;;;;;10.72;66.51;100533.59;5076918;28;20511;-56
2022/04/06 01:34:46;;;;;;;12.52;1.77;;;;;;;10.65;66.48;100531.28;5077024;28;20067;-64
2022/04/06 01:37:17;;;;;;;8.52;1.88;;;;;;;10.68;66.27;100518.81;5077122;28;20059;-61
2022/04/06 01:39:46;;;;;;;10.57;2.78;;;;;;;10.81;66.14;100515.94;5077288;28;20053;-64
2022/04/06 01:42:15;;;;;;;9.57;2.15;;;;;;;10.51;65.84;100522.34;5070242;28;20053;-62
2022/04/06 01:44:46;;;;;;;16.67;2.20;;;;;;;10.35;67.02;100526.63;5076970;28;20053;-62
2022/04/06 01:47:15;;;;;;;11.40;1.88;;;;;;;10.28;66.67;100522.69;5072013;28;20048;-61
2022/04/06 01:52:30;;;;;;;10.15;1.70;;;;;;;10.26;66.87;100512.00;5069126;28;20056;-61
2022/04/06 01:55:05;;;;;;;9.43;1.63;;;;;;;10.12;67.38;100514.03;5072552;28;20392;-60
2022/04/06 01:57:33;;;;;;;12.05;1.77;;;;;;;10.08;67.93;100513.84;5076952;28;20408;-61
2022/04/06 02:00:02;;;;;;;6.05;1.67;;;;;;;10.22;67.83;100510.19;5092286;28;20048;-61
2022/04/06 02:02:33;;;;;;;12.27;2.03;;;;;;;10.26;67.53;100503.75;5076433;28;20052;-62
2022/04/06 02:05:00;;;;;;;8.02;1.73;;;;;;;10.11;67.97;100513.19;5074317;28;20048;-62
2022/04/06 02:07:28;;;;;;;8.57;1.90;;;;;;;10.17;67.95;100505.63;5073504;28;20404;-61
2022/04/06 02:09:58;;;;;;;10.32;2.00;;;;;;;10.04;68.06;100523.81;5066915;28;20504;-56
2022/04/06 02:12:26;;;;;;;10.68;1.58;;;;;;;10.03;68.22;100508.44;5076406;28;20409;-56
2022/04/06 02:14:53;;;;;;;9.25;1.85;;;;;;;10.06;67.68;100510.56;5075185;28;20060;-56
2022/04/06 02:17:21;;;;;;;11.93;2.10;;;;;;;10.18;67.39;100502.56;5076502;28;20044;-59
2022/04/06 02:19:48;;;;;;;11.98;2.15;;;;;;;10.12;67.93;100511.28;5076487;28;20067;-56
2022/04/06 02:22:18;;;;;;;8.23;1.75;;;;;;;10.13;68.41;100510.13;5070305;28;20052;-55
2022/04/06 02:24:45;;;;;;;9.27;1.70;;;;;;;10.14;68.30;100498.00;5076229;28;20056;-56
2022/04/06 02:27:13;;;;;;;12.40;1.88;;;;;;;9.94;68.19;100501.25;5076324;28;20048;-56
2022/04/06 02:29:41;;;;;;;8.25;2.15;;;;;;;10.04;67.74;100501.00;5075861;28;20376;-53
2022/04/06 02:32:09;;;;;;;9.35;1.77;;;;;;;9.94;67.86;100487.50;5076412;28;20052;-55
2022/04/06 02:34:37;;;;;;;10.50;1.83;;;;;;;10.05;67.79;100488.84;5076162;28;20052;-56
2022/04/06 02:37:06;;;;;;;9.73;1.75;;;;;;;10.04;67.74;100495.50;5070671;28;20049;-58
2022/04/06 02:39:33;;;;;;;11.30;1.60;;;;;;;10.08;67.44;100490.97;5072736;28;20475;-57
2022/04/06 02:42:00;;;;;;;11.80;1.85;;;;;;;10.11;67.18;100488.44;5073684;28;20063;-53
2022/04/06 02:44:27;;;;;;;10.15;2.10;;;;;;;10.23;66.67;100482.34;5073806;28;20055;-57
2022/04/06 02:46:55;;;;;;;13.15;2.10;;;;;;;10.17;67.06;100483.59;5075703;28;20534;-56
2022/04/06 02:49:22;;;;;;;6.80;1.60;;;;;;;10.25;66.63;100473.78;5075738;28;20048;-54
2022/04/06 02:51:49;;;;;;;5.60;1.60;;;;;;;10.25;66.91;100480.09;5075072;28;20077;-57
2022/04/06 02:54:17;;;;;;;10.05;1.63;;;;;;;10.30;66.56;100482.72;5075243;28;20511;-55
2022/04/06 02:56:45;;;;;;;7.00;1.40;;;;;;;10.33;65.97;100482.06;5075700;28;20075;-62
2022/04/06 02:59:13;;;;;;;8.70;1.58;;;;;;;10.38;66.08;100475.59;5075687;28;20059;-61
2022/04/06 03:01:40;;;;;;;7.35;1.40;;;;;;;10.31;66.84;100475.25;5074233;28;20063;-61
2022/04/06 03:04:08;;;;;;;6.28;1.17;;;;;;;10.34;66.18;100467.16;5075728;28;20064;-61
2022/04/06 03:06:37;;;;;;;5.35;1.30;;;;;;;10.45;65.72;100463.00;5081206;28;20048;-61
2022/04/06 03:09:04;;;;;;;5.30;1.08;;;;;;;10.48;65.48;100458.81;5072948;28;20056;-61
2022/04/06 03:11:31;;;;;;;8.23;1.33;;;;;;;10.58;66.09;100453.84;5075496;28;20063;-62
2022/04/06 03:13:59;;;;;;;6.55;1.45;;;;;;;10.62;65.70;100453.97;5086030;28;20531;-61
2022/04/06 03:16:26;;;;;;;6.53;1.25;;;;;;;10.54;65.87;100447.31;5066604;28;20049;-61
2022/04/06 03:18:53;;;;;;;5.10;1.33;;;;;;;10.77;65.29;100450.78;5069467;28;20479;-61
2022/04/06 03:21:21;;;;;;;6.43;1.20;;;;;;;10.44;64.83;100453.13;5075377;28;20408;-62
2022/04/06 03:23:48;;;;;;;8.20;1.35;;;;;;;10.32;65.52;100444.66;5074624;28;20051;-62
2022/04/06 03:26:15;;;;;;;2.78;0.80;;;;;;;10.50;65.46;100443.59;5075255;28;20044;-61
2022/04/06 03:28:43;;;;;;;3.08;0.90;;;;;;;10.76;65.03;100433.44;5075175;28;20590;-63
2022/04/06 03:31:10;;;;;;;5.32;1.25;;;;;;;10.90;65.32;100441.56;5073814;28;20051;-61
2022/04/06 03:33:37;;;;;;;9.70;1.10;;;;;;;10.64;65.38;100435.19;5073245;28;20063;-61
2022/04/06 03:36:05;;;;;;;4.68;1.20;;;;;;;10.68;64.90;100436.19;5073805;28;20071;-61
2022/04/06 03:38:33;;;;;;;4.47;1.00;;;;;;;10.59;64.90;100435.34;5074747;28;20066;-62
2022/04/06 03:41:00;;;;;;;2.92;0.90;;;;;;;10.60;64.86;100435.00;5069766;28;20067;-62
2022/04/06 03:43:27;;;;;;;6.50;1.00;;;;;;;10.62;64.45;100430.00;5073907;28;20048;-62
2022/04/06 03:45:55;;;;;;;5.10;0.90;;;;;;;10.53;65.12;100426.41;5082314;28;20052;-62
2022/04/06 03:48:23;;;;;;;5.18;1.10;;;;;;;10.64;64.95;100421.41;5078290;28;20056;-61
2022/04/06 03:50:50;;;;;;;4.45;1.13;;;;;;;10.90;64.65;100433.28;5090699;28;20384;-62
2022/04/06 03:53:18;;;;;;;5.75;0.90;;;;;;;10.75;64.37;100426.31;5090029;28;20052;-62
2022/04/06 03:55:45;;;;;;;3.60;1.08;;;;;;;10.68;64.97;100425.16;5074412;28;20057;-62
2022/04/06 03:58:13;;;;;;;4.95;1.20;;;;;;;10.74;64.20;100421.94;5074900;28;20396;-62
2022/04/06 04:00:40;;;;;;;6.03;1.08;;;;;;;10.98;64.17;100421.47;5083661;28;20052;-61
2022/04/06 04:03:07;;;;;;;4.25;0.95;;;;;;;10.84;63.93;100426.34;5078448;28;20059;-61
2022/04/06 04:05:35;;;;;;;5.57;0.95;;;;;;;10.85;64.19;100426.00;5074768;28;20803;-61
2022/04/06 04:08:03;;;;;;;4.63;0.90;;;;;;;10.97;63.94;100428.13;5073126;28;20072;-61
2022/04/06 04:10:30;;;;;;;5.50;1.00;;;;;;;10.79;64.19;100427.28;5073125;28;20059;-61
2022/04/06 04:12:57;;;;;;;4.43;0.98;;;;;;;10.86;64.24;100421.31;5050577;28;20045;-61
2022/04/06 04:15:25;;;;;;;4.03;0.90;;;;;;;10.87;64.51;100420.97;5072130;28;20174;-62
2022/04/06 04:17:52;;;;;;;8.60;1.25;;;;;;;10.86;64.55;100422.09;5089425;28;20048;-61
2022/04/06 04:20:20;;;;;;;6.55;1.15;;;;;;;10.60;65.49;100410.22;5064189;28;20416;-60
2022/04/06 04:22:47;;;;;;;6.63;1.33;;;;;;;10.58;65.62;100412.53;5074090;28;20071;-62
2022/04/06 04:25:15;;;;;;;4.13;1.20;;;;;;;10.66;65.97;100414.47;5089998;28;20056;-61
2022/04/06 04:27:42;;;;;;;5.47;1.38;;;;;;;10.61;65.81;100414.63;5074504;28;20491;-61
2022/04/06 04:30:10;;;;;;;9.00;1.45;;;;;;;10.66;65.89;100413.66;5074567;28;20053;-61
2022/04/06 04:32:38;;;;;;;8.50;1.55;;;;;;;10.63;66.32;100412.38;5062671;28;20056;-61
2022/04/06 04:35:07;;;;;;;8.73;1.55;;;;;;;10.55;66.54;100407.63;5069623;28;20854;-60
2022/04/06 04:37:36;;;;;;;6.07;1.20;;;;;;;10.36;66.85;100404.34;5071817;28;20483;-62
2022/04/06 04:40:04;;;;;;;6.97;1.60;;;;;;;10.46;67.24;100390.28;5074609;28;20048;-62
2022/04/06 04:42:31;;;;;;;5.88;1.15;;;;;;;10.44;66.93;100389.81;5071160;28;20044;-60
2022/04/06 04:45:23;;;;;;;12.30;1.88;;;;;;;10.32;67.05;100397.06;5072940;28;20056;-64
2022/04/06 04:47:54;;;;;;;7.88;1.63;;;;;;;10.28;67.35;100385.88;5061886;28;20052;-64
2022/04/06 04:50:25;;;;;;;8.18;2.40;;;;;;;10.51;66.53;100381.06;5069720;28;20041;-64
2022/04/06 04:52:59;;;;;;;8.02;1.80;;;;;;;10.40;67.31;100383.31;5081023;28;20053;-63
2022/04/06 04:55:27;;;;;;;7.28;1.65;;;;;;;10.45;66.92;100377.66;5076296;28;20048;-62
2022/04/06 04:57:54;;;;;;;8.65;1.50;;;;;;;10.63;66.07;100372.97;5075403;28;20380;-61
2022/04/06 05:00:21;;;;;;;7.97;1.60;;;;;;;10.59;65.88;100378.31;5076339;28;20060;-62
2022/04/06 05:02:55;;;;;;;8.68;1.48;;;;;;;10.61;65.96;100373.31;5077806;28;20060;-63
2022/04/06 05:05:23;;;;;;;6.80;1.45;;;;;;;10.59;65.52;100374.75;5077752;28;20057;-62
2022/04/06 05:07:51;;;;;;;5.25;1.48;;;;;;;10.75;65.38;100371.22;5065929;28;20044;-62
2022/04/06 05:10:20;;;;;;;5.25;1.65;;;;;;;10.69;65.82;100378.00;5078049;28;20048;-61
2022/04/06 05:12:48;;;;;;;6.90;1.50;;;;;;;10.69;65.65;100380.75;5064647;28;20044;-55
2022/04/06 05:15:16;;;;;;;5.57;1.55;;;;;;;10.68;65.85;100379.16;5077586;28;20523;-57
2022/04/06 05:18:09;;;;;;;6.35;1.65;;;;;;;10.95;64.89;100369.75;5076636;28;20051;-58
2022/04/06 05:20:53;;;;;;;5.70;1.35;;;;;;;10.96;64.74;100372.22;5072686;28;20052;-56
2022/04/06 05:23:23;;;;;;;6.68;1.48;;;;;;;10.73;65.39;100367.97;5057314;28;20045;-58
2022/04/06 05:26:24;;;;;;;7.90;1.80;;;;;;;11.04;64.88;100368.63;5074280;28;20059;-57
2022/04/06 05:29:49;;;;;;;10.50;2.70;;;;;;;10.53;65.99;100370.53;5066860;28;20094;-64
2022/04/06 05:32:24;;;;;;;12.90;2.60;;;;;;;10.94;65.34;100379.16;5067571;28;20045;-56
2022/04/06 05:34:57;;;;;;;9.75;2.00;;;;;;;10.80;65.41;100382.09;5059698;28;20052;-59
2022/04/06 05:37:25;;;;;;;7.88;2.03;;;;;;;10.35;67.40;100380.72;5066007;28;20047;-62
2022/04/06 05:39:55;;;;;;;6.20;1.80;;;;;;;10.53;67.05;100389.81;5076482;28;20492;-62
2022/04/06 05:42:26;;;;;;;7.18;2.30;;;;;;;10.84;67.00;100391.34;5057408;28;20048;-58
2022/04/06 05:44:56;;;;;;;7.43;2.00;;;;;;;10.65;66.66;100390.78;5077280;28;20059;-55
2022/04/06 05:47:35;;;;;;;11.10;2.67;;;;;;;10.36;67.92;100387.81;5040960;28;20053;-60
2022/04/06 05:50:14;;;;;;;8.77;2.50;;;;;;;10.28;68.03;100382.31;5070206;28;20043;-64
2022/04/06 05:53:06;;;;;;;7.90;2.15;;;;;;;10.27;68.83;100380.69;5066015;28;20040;-53
2022/04/06 05:55:33;;;;;;;7.85;3.30;;;;;;;10.22;68.54;100367.88;5054759;28;20057;-62
2022/04/06 05:58:01;;;;;;;8.35;2.42;;;;;;;10.09;69.13;100377.84;5069249;28;20392;-62
2022/04/06 06:00:28;;;;;;;9.88;3.15;;;;;;;10.42;68.63;100377.47;5076495;28;20052;-62
2022/04/06 06:02:55;;;;;;;14.82;2.88;;;;;;;10.36;68.70;100387.00;5075267;28;20049;-62
2022/04/06 06:05:22;;;;;;;10.95;2.78;;;;;;;10.41;68.59;100367.63;5059727;28;20056;-61
2022/04/06 06:07:50;;;;;;;9.55;2.67;;;;;;;10.33;68.81;100376.63;5076196;28;20040;-62
2022/04/06 06:10:17;;;;;;;8.90;2.58;;;;;;;10.34;70.11;100376.31;5084622;28;20479;-61
2022/04/06 06:12:44;;;;;;;10.68;2.78;;;;;;;10.17;69.86;100377.09;5082873;28;20056;-63
2022/04/06 06:15:12;;;;;;;11.80;2.50;;;;;;;10.38;68.88;100370.97;5076670;28;20055;-62
2022/04/06 06:17:40;;;;;;;10.23;2.90;;;;;;;10.33;69.15;100365.63;5076219;28;20044;-62
2022/04/06 06:20:07;;;;;;;10.73;2.53;;;;;;;10.42;68.62;100361.78;5062329;28;20056;-62
2022/04/06 06:22:35;;;;;;;15.00;3.35;;;;;;;10.48;68.43;100363.22;5075670;28;20052;-62
2022/04/06 06:25:03;;;;;;;14.00;4.15;;;;;;;10.69;68.01;100363.41;5074920;28;20049;-63
2022/04/06 06:27:37;;;;;;;12.32;2.47;;;;;;;10.47;68.11;100358.06;5074891;28;20036;-60
2022/04/06 06:30:06;;;;;;;10.82;2.28;;;;;;;10.58;68.44;100360.19;5074052;28;20056;-63
2022/04/06 06:32:33;;;;;;;11.48;2.70;;;;;;;10.50;68.36;100357.41;5049577;28;20045;-62
2022/04/06 06:35:01;;;;;;;11.80;2.50;;;;;;;10.70;67.98;100354.84;5064358;28;20064;-62
2022/04/06 06:37:45;;;;;;;13.13;2.00;;;;;;;11.38;71.15;100348.50;5072792;28;20055;-62
2022/04/06 06:40:13;;;;;;;8.45;1.85;;;;;;;11.83;70.77;100354.38;5067112;28;20519;-61
2022/04/06 06:42:40;;;;;;;8.15;1.73;;;;;;;11.80;68.06;100357.81;5067466;28;20159;-62
2022/04/06 06:45:07;;;;;;;12.25;1.83;;;;;;;11.97;67.09;100357.75;5071549;28;20059;-64
2022/04/06 06:47:35;;;;;;;12.25;2.50;;;;;;;12.09;65.36;100353.16;5073883;28;20051;-59
2022/04/06 06:50:03;;;;;;;10.55;1.90;;;;;;;11.64;63.93;100353.94;5073326;28;20083;-61
2022/04/06 06:52:34;;;;;;;8.40;2.20;;;;;;;11.49;64.47;100351.72;5070407;28;20060;-62
2022/04/06 06:55:02;;;;;;;14.30;2.35;;;;;;;11.78;63.84;100352.63;5063811;28;20049;-63
2022/04/06 06:57:30;;;;;;;16.40;2.95;;;;;;;11.58;64.08;100346.97;5067001;28;20045;-62
2022/04/06 06:59:57;;;;;;;18.55;2.50;;;;;;;11.61;64.40;100357.34;5067751;28;20053;-62
2022/04/06 07:02:25;;;;;;;8.98;2.20;;;;;;;11.35;64.57;100351.88;5067629;28;20471;-62
2022/04/06 07:04:52;;;;;;;7.70;2.42;;;;;;;11.39;64.68;100350.09;5068947;28;20401;-62
2022/04/06 07:07:20;;;;;;;8.05;2.35;;;;;;;11.24;65.19;100356.91;5064071;28;20052;-62
2022/04/06 07:09:47;;;;;;;13.32;2.22;;;;;;;11.03;65.74;100344.97;5068598;28;20044;-62
2022/04/06 07:12:14;;;;;;;8.95;2.35;;;;;;;11.04;65.72;100343.00;5060652;28;20052;-61
2022/04/06 07:14:41;;;;;;;5.53;2.00;;;;;;;11.38;65.35;100339.41;5060516;28;20049;-62
2022/04/06 07:17:09;;;;;;;12.52;2.78;;;;;;;11.35;65.06;100332.56;5067900;28;20372;-63
2022/04/06 07:19:36;;;;;;;8.68;2.33;;;;;;;11.32;65.12;100338.75;5066946;28;20049;-62
2022/04/06 07:22:03;;;;;;;9.95;2.25;;;;;;;11.51;65.18;100333.69;5065982;28;20044;-63
2022/04/06 07:24:30;;;;;;;14.25;2.60;;;;;;;11.62;64.69;100331.38;5069752;28;20071;-62
2022/04/06 07:26:58;;;;;;;6.65;1.75;;;;;;;11.42;65.15;100334.84;5070769;28;20064;-64
2022/04/06 07:29:25;;;;;;;10.38;1.98;;;;;;;11.53;64.98;100330.59;5061444;28;20495;-62
2022/04/06 07:31:52;;;;;;;10.80;2.70;;;;;;;11.63;63.95;100338.53;5067182;28;20488;-62
2022/04/06 07:34:20;;;;;;;11.77;2.60;;;;;;;11.38;64.66;100323.66;5068106;28;20048;-62
2022/04/06 07:36:47;;;;;;;9.93;2.30;;;;;;;11.67;64.43;100325.72;5069894;28;20799;-63
2022/04/06 07:39:14;;;;;;;10.82;2.95;;;;;;;11.73;64.06;100333.50;5055427;28;20079;-54
2022/04/06 07:41:42;;;;;;;13.75;2.47;;;;;;;11.66;64.15;100332.38;5065159;28;20507;-58
2022/04/06 07:44:10;;;;;;;9.68;2.60;;;;;;;11.75;63.61;100330.41;5074768;28;20055;-63
2022/04/06 07:46:38;;;;;;;12.13;2.47;;;;;;;11.97;63.49;100330.97;5083300;28;20498;-63
2022/04/06 07:49:07;;;;;;;9.88;1.90;;;;;;;12.04;62.91;100333.19;5067922;28;20040;-57
2022/04/06 07:51:36;;;;;;;7.72;2.08;;;;;;;11.56;63.64;100327.97;5082442;28;20527;-61
2022/04/06 07:54:03;;;;;;;13.37;2.00;;;;;;;11.40;64.45;100323.34;5076730;28;20420;-62
2022/04/06 07:56:31;;;;;;;9.95;1.88;;;;;;;11.41;64.53;100325.75;5069080;28;20299;-62
2022/04/06 07:58:58;;;;;;;10.80;2.40;;;;;;;11.59;64.10;100319.06;5060307;28;20045;-62
2022/04/06 08:01:31;;;;;;;10.63;2.42;;;;;;;11.84;63.92;100320.13;5072756;28;20051;-63
2022/04/06 08:03:59;;;;;;;7.20;2.45;;;;;;;11.79;63.76;100312.84;5085017;28;20037;-62
2022/04/06 08:06:26;;;;;;;6.68;2.22;;;;;;;11.96;63.02;100314.72;5069512;28;20057;-62
2022/04/06 08:08:53;;;;;;;7.40;2.00;;;;;;;12.00;62.33;100301.88;5067806;28;20045;-62
2022/04/06 08:11:21;;;;;;;17.23;2.95;;;;;;;12.00;62.86;100304.63;5067942;28;20057;-62
2022/04/06 08:13:49;;;;;;;21.63;8.73;;;;;;;11.62;63.67;100304.59;5064823;28;20048;-62
2022/04/06 08:16:16;;;;;;;8.45;2.40;;;;;;;11.74;64.01;100304.75;5070549;28;20063;-63
2022/04/06 08:18:44;;;;;;;13.15;3.10;;;;;;;11.99;63.55;100298.31;5070502;28;20055;-63
2022/04/06 08:21:12;;;;;;;13.90;3.38;;;;;;;12.31;62.61;100296.81;5086909;28;20060;-63
2022/04/06 08:23:39;;;;;;;8.63;2.60;;;;;;;12.19;62.43;100296.72;5070930;28;20420;-62
2022/04/06 08:26:06;;;;;;;12.40;2.83;;;;;;;12.23;62.30;100305.97;5069534;28;20045;-62
2022/04/06 08:28:33;;;;;;;19.23;2.58;;;;;;;12.15;62.65;100301.31;5062252;28;20044;-63
2022/04/06 08:31:01;;;;;;;9.48;1.90;;;;;;;12.02;62.53;100297.63;5069964;28;20055;-62
2022/04/06 08:33:29;;;;;;;10.25;1.98;;;;;;;12.08;62.16;100298.25;5072182;28;20052;-62
2022/04/06 08:35:56;;;;;;;7.47;1.80;;;;;;;11.97;62.21;100299.78;5063253;28;20036;-63
2022/04/06 08:38:24;;;;;;;14.77;2.50;;;;;;;12.24;62.05;100288.22;5092856;28;20049;-62
2022/04/06 08:40:51;;;;;;;9.25;2.33;;;;;;;12.31;61.95;100289.34;5077850;28;20139;-64
2022/04/06 08:43:20;;;;;;;14.95;2.60;;;;;;;12.60;61.48;100287.66;5059696;28;20496;-63
2022/04/06 08:45:48;;;;;;;8.98;2.65;;;;;;;12.09;61.77;100286.06;5076551;28;20527;-63
2022/04/06 08:48:15;;;;;;;12.90;2.03;;;;;;;12.31;62.14;100288.50;5077348;28;20040;-62
2022/04/06 08:50:45;;;;;;;12.57;2.72;;;;;;;12.08;62.15;100284.47;5077651;28;20041;-63
2022/04/06 08:53:12;;;;;;;11.52;2.53;;;;;;;12.15;61.87;100290.25;5065952;28;20059;-64
2022/04/06 08:55:40;;;;;;;8.50;2.40;;;;;;;12.07;62.07;100286.41;5059924;28;20056;-63
2022/04/06 08:58:07;;;;;;;8.88;2.08;;;;;;;12.40;61.93;100283.75;5068819;28;20045;-62
2022/04/06 09:00:34;;;;;;;11.02;2.78;;;;;;;12.65;60.86;100282.75;5041308;28;20432;-63
2022/04/06 09:03:01;;;;;;;12.77;3.75;;;;;;;12.68;60.47;100279.31;5073028;28;20067;-63
2022/04/06 09:05:32;;;;;;;9.48;2.60;;;;;;;12.68;60.33;100275.72;5076458;28;20072;-63
2022/04/06 09:08:00;;;;;;;10.73;2.83;;;;;;;12.74;60.16;100266.91;5075809;28;20048;-64
2022/04/06 09:10:35;;;;;;;10.63;2.55;;;;;;;13.06;59.15;100266.13;5074569;28;20040;-62
2022/04/06 09:13:13;;;;;;;10.55;2.38;;;;;;;12.93;59.63;100261.69;5071486;28;20049;-62
2022/04/06 09:15:41;;;;;;;9.52;2.22;;;;;;;12.71;60.13;100267.56;5073368;28;20053;-66
2022/04/06 09:18:08;;;;;;;14.70;2.80;;;;;;;12.67;60.06;100269.41;5072566;28;20171;-61
2022/04/06 09:20:36;;;;;;;14.00;2.80;;;;;;;12.67;60.36;100263.88;5075657;28;20052;-63
2022/04/06 09:23:05;;;;;;;10.95;2.60;;;;;;;12.75;60.43;100273.22;5077108;28;20052;-63
2022/04/06 09:25:37;;;;;;;10.83;2.43;;;;;;;12.89;60.09;100265.47;5066809;28;20066;-62
2022/04/06 09:28:16;;;;;;;11.25;2.35;;;;;;;12.81;60.07;100266.34;5076029;28;20306;-63
2022/04/06 09:30:45;;;;;;;11.60;2.85;;;;;;;13.01;59.83;100262.72;5073658;28;20384;-63
2022/04/06 09:33:21;;;;;;;12.43;2.78;;;;;;;12.95;59.41;100259.41;5076535;28;20071;-62
2022/04/06 09:35:49;;;;;;;9.70;2.50;;;;;;;13.03;59.62;100272.34;5076917;28;20049;-62
2022/04/06 09:38:25;;;;;;;12.07;2.78;;;;;;;12.74;60.14;100258.63;5075009;28;20040;-62
2022/04/06 09:41:06;;;;;;;13.40;2.58;;;;;;;12.42;60.68;100271.22;5076649;28;20142;-63
2022/04/06 09:43:34;;;;;;;7.30;2.25;;;;;;;12.49;60.39;100278.97;5074067;28;20052;-62
2022/04/06 09:49:14;;;;;;;13.55;4.15;;;;;;;12.95;59.74;100262.16;5069369;28;20051;-63
2022/04/06 09:51:51;;;;;;;13.45;2.95;;;;;;;12.85;59.00;100265.31;5073742;28;20059;-62
2022/04/06 09:54:19;;;;;;;8.02;2.47;;;;;;;13.16;58.52;100264.91;5071184;28;20052;-62
2022/04/06 09:56:46;;;;;;;8.75;2.45;;;;;;;13.09;58.95;100261.91;5070181;28;20427;-62
2022/04/06 09:59:14;;;;;;;9.90;2.47;;;;;;;12.86;58.46;100246.78;5072800;28;20044;-62
2022/04/06 10:01:45;;;;;;;8.50;2.35;;;;;;;12.86;59.25;100275.25;5073988;28;20051;-62
2022/04/06 10:04:21;;;;;;;10.13;2.80;;;;;;;12.67;59.73;100271.34;5055816;28;20053;-63
2022/04/06 10:06:49;;;;;;;8.55;2.75;;;;;;;12.81;59.73;100269.13;5072666;28;20048;-62
2022/04/06 10:09:16;;;;;;;14.70;5.82;;;;;;;12.69;60.03;100264.34;5073978;28;20047;-62
2022/04/06 10:11:43;;;;;;;11.25;3.00;;;;;;;12.86;59.61;100261.44;5073101;28;20045;-63
2022/04/06 10:14:11;;;;;;;12.65;3.47;;;;;;;13.06;59.02;100241.25;5072991;28;20048;-62
2022/04/06 10:16:39;;;;;;;10.73;3.28;;;;;;;13.18;59.07;100240.50;5074595;28;20056;-61
2022/04/06 10:19:12;;;;;;;9.45;2.60;;;;;;;13.05;58.70;100230.53;5089428;28;20060;-61
2022/04/06 10:21:45;;;;;;;16.35;3.05;;;;;;;13.42;57.95;100226.69;5072238;28;20056;-63
2022/04/06 10:24:32;;;;;;;11.60;3.22;;;;;;;13.60;57.92;100230.84;5072930;28;20048;-62
2022/04/06 10:27:05;;;;;;;9.55;3.33;;;;;;;13.90;56.48;100239.72;5070678;28;20067;-63
2022/04/06 10:29:32;;;;;;;10.00;3.40;;;;;;;13.41;57.15;100228.66;5082478;28;20050;-63
2022/04/06 10:32:00;;;;;;;11.90;3.50;;;;;;;13.62;57.66;100220.25;5062062;28;20067;-62
2022/04/06 10:34:32;;;;;;;12.90;4.63;;;;;;;13.75;56.89;100223.81;5056654;28;20068;-61
2022/04/06 10:37:02;;;;;;;10.25;2.88;;;;;;;14.05;57.03;100223.22;5074407;28;20057;-62
2022/04/06 10:39:29;;;;;;;12.68;5.50;;;;;;;14.02;55.55;100217.56;5069326;28;20100;-58
2022/04/06 10:42:28;;;;;;;12.35;5.18;;;;;;;13.83;56.05;100218.16;5071981;28;20060;-63
2022/04/06 10:44:55;;;;;;;11.85;3.88;;;;;;;14.04;56.12;100204.19;5065183;28;20128;-64
2022/04/06 10:47:23;;;;;;;29.35;10.55;;;;;;;13.94;56.15;100211.00;5073816;28;20064;-68
2022/04/06 10:50:21;;;;;;;23.70;7.00;;;;;;;13.23;58.30;100209.84;5067471;28;20048;-61
2022/04/06 10:52:51;;;;;;;14.05;3.90;;;;;;;13.13;59.53;100210.25;5061355;28;20708;-61
2022/04/06 10:55:23;;;;;;;9.50;3.72;;;;;;;13.17;59.12;100195.44;5075597;28;20063;-65
2022/04/06 10:58:02;;;;;;;17.80;5.07;;;;;;;13.23;59.41;100187.72;5074620;28;20503;-64
2022/04/06 11:00:31;;;;;;;14.10;3.92;;;;;;;13.02;59.96;100192.53;5073773;28;20044;-64
2022/04/06 11:03:18;;;;;;;10.30;3.85;;;;;;;13.40;59.62;100173.66;5070697;28;20059;-64
2022/04/06 11:05:52;;;;;;;12.75;4.18;;;;;;;13.57;58.94;100182.56;5069346;28;20055;-62
2022/04/06 11:11:47;;;;;;;14.68;4.90;;;;;;;13.57;58.76;100167.91;5057381;28;20048;-64
2022/04/06 11:14:23;;;;;;;17.20;6.00;;;;;;;13.59;59.47;100162.81;5064287;28;20044;-64
2022/04/06 11:16:52;;;;;;;23.67;6.50;;;;;;;13.97;nan;100159.66;5074207;28;20052;-65
2022/04/06 11:19:20;;;;;;;15.77;4.85;;;;;;;14.21;58.02;100157.63;5074773;28;20044;-65
2022/04/06 11:21:52;;;;;;;22.55;6.00;;;;;;;14.36;57.80;100161.66;5072489;28;20044;-65
2022/04/06 11:24:23;;;;;;;15.27;5.40;;;;;;;14.45;57.00;100154.81;5060688;28;20065;-64
2022/04/06 11:26:51;;;;;;;14.82;4.47;;;;;;;14.42;57.26;100146.38;5074324;28;20052;-64
2022/04/06 11:29:19;;;;;;;15.38;5.25;;;;;;;14.50;57.21;100146.25;5074913;28;20052;-63
2022/04/06 11:32:10;;;;;;;26.67;12.25;;;;;;;14.47;57.02;100138.63;5066764;28;20048;-63
2022/04/06 11:34:39;;;;;;;16.10;6.25;;;;;;;14.34;57.28;100131.53;5066973;28;20056;-64
2022/04/06 11:37:08;;;;;;;13.57;5.47;;;;;;;14.66;56.79;100129.66;5062464;28;20045;-63
2022/04/06 11:39:35;;;;;;;15.65;5.93;;;;;;;14.58;56.49;100122.31;5068029;28;20052;-63
2022/04/06 11:42:04;;;;;;;13.90;4.03;;;;;;;14.79;56.63;100111.78;5071981;28;20059;-62